AirNav   Pilot Hours Calculator
 
 1220 users online  

16KY UCMC Air Care Walton Heliport
Walton, Kentucky, USA


FAA INFORMATION EFFECTIVE 26 MARCH 2020

Location

FAA Identifier: 16KY
Lat/Long: 38-51-10.7000N 084-36-59.7000W
38-51.178333N 084-36.995000W
38.8529722,-84.6165833
(estimated)
Elevation: 850 ft. / 259 m (estimated)
From city: 1 mile SW of WALTON, KY
Time zone: UTC -4 (UTC -5 during Standard Time)
Zip code: 41094

Heliport Operations

Heliport use: Private use. Permission required prior to landing
Activation date: 06/2019
Control tower: no
ARTCC: INDIANAPOLIS CENTER
FSS: TERRE HAUTE FLIGHT SERVICE STATION
Attendance: 
Wind indicator: lighted
Segmented circle: yes
Lights: SS-SR

Heliport Communications

WX ASOS at CVG (12 nm N): PHONE 859-767-8210
WX AWOS-3 at K62 (14 nm SE): 123.825 (859-654-1345)
WX ASOS at LUK (18 nm NE): 120.25 (513-321-6291)

Nearby radio navigation aids

VOR radial/distance  VOR name  Freq  Var
CVGr162/10.6CINCINNATI VORTAC117.3004W
FLMr314/18.8FALMOUTH VOR/DME117.0004W

 
NDB name  Hdg/Dist  Freq  Var  ID
CINCINNATI219/22.433504WLUK .-.. ..- -.-
SPORTYS238/23.024504WPWF .--. .-- ..-.
HOOK FIELD195/39.523904WHKF .... -.- ..-.

Heliport Services

Runway Information

Helipad H1

Dimensions: 36 x 36 ft. / 11 x 11 m
Surface: concrete
Runway edge lights: non-standard
FATO LGTS DO NOT FULLY SURROUND LDG AREA.
Latitude: 38-51.178333N
Longitude: 084-36.995000W
Elevation: 850.0 ft.
Traffic pattern: leftleft
Markings: basic, in good condition

Heliport Ownership and Management from official FAA records

Ownership: Privately-owned
Owner: AIR CARE AND MOBILE CARE OF CINCINN
3200 BURNET AV.
CINCINNATI, OH 45229
Phone 513-584-7522
Manager: MATTHEW GUNDERMAN
3200 BURNET AV.
CINCINNATI, OH 45229
Phone 513-584-7522

Heliport Operational Statistics

Aircraft based on the field: 1
Helicopters: 1
    

Additional Remarks

TLOF 36 FT DIAM; FATO 64 FT DIAM.

Instrument Procedures

There are no published instrument procedures at 16KY.

Some nearby airports with instrument procedures:

KCVG - Cincinnati/Northern Kentucky International Airport (12 nm N)
K62 - Gene Snyder Airport (14 nm SE)
KLUK - Cincinnati Municipal Airport-Lunken Field (18 nm NE)
I69 - Clermont County Airport (23 nm NE)
I67 - Cincinnati West Airport (25 nm N)
 
Loc | Ops | Rwys | IFR | FBO | Links
Com | Nav | Svcs | Stats | Notes
Aerial photo
No photo
 
Airport distance calculator
Flying to UCMC Air Care Walton Heliport? Find the distance to fly.

From to 16KY

Sunrise and sunset
Times for 30-Mar-2020
 Local
(UTC-4)
 Zulu
(UTC)
Morning civil twilight06:5910:59
Sunrise07:2611:26
Sunset20:0024:00
Evening civil twilight20:2700:27

Current date and time
Zulu (UTC)  30-Mar-2020 19:28:08
Local (UTC-4)  30-Mar-2020 15:28:08
 
METAR
KCVG 
12nm N 
301852Z 28020G24KT 10SM FEW035 FEW150 BKN250 16/M01 A3011 RMK AO2 PK WND 29030/1825 SLP192 T01561011
KLUK 
18nm NE 
301853Z 27015G25KT 10SM CLR 16/01 A3011 RMK AO2 PK WND 26027/1841 SLP196 T01560011
KI69 
23nm NE 
301915Z AUTO 26018G28KT 10SM CLR 15/01 A3010 RMK AO2 T01490007
TAF
KCVG 
12nm N 
301733Z 3018/3124 29018G28KT P6SM FEW050 SCT250 FM302200 30014G22KT P6SM SCT060 FM310000 32008KT P6SM SCT060 FM310200 35006KT P6SM SCT060 FM311200 03004KT P6SM BKN045 FM311500 04005KT P6SM OVC025 FM311900 01005KT P6SM OVC035
KLUK 
18nm NE 
301733Z 3018/3118 29016G26KT P6SM FEW050 SCT250 FM302200 30012G20KT P6SM SCT060 FM310000 32006KT P6SM SCT060 FM310200 35004KT P6SM SCT060 FM311200 03004KT P6SM BKN045 FM311500 04005KT P6SM OVC028
NOTAMs
Click for the latest NOTAMs
NOTAMs are issued by the DoD/FAA and will open in a separate window not controlled by AirNav.

 

 
 

Would you like to see your business listed on this page?

 If your business provides an interesting product or service to pilots, flight crews, aircraft, or users of the UCMC Air Care Walton Heliport, you should consider listing it here.  To start the listing process, click on the button below
 
Add a business
 

Other Pages about UCMC Air Care Walton Heliport

Update a link
 
Copyright © AirNav, LLC. All rights reserved. Privacy Policy  Contact